sensor_id;sensor_type;location;lat;lon;timestamp;P1;durP1;ratioP1;P2;durP2;ratioP2
50569;SDS011;36525;49.398;7.614;2023-08-08T00:01:51;2.20;;;0.68;;
50569;SDS011;36525;49.398;7.614;2023-08-08T00:04:18;2.38;;;0.80;;
50569;SDS011;36525;49.398;7.614;2023-08-08T00:06:45;3.65;;;0.70;;
50569;SDS011;36525;49.398;7.614;2023-08-08T00:09:15;2.53;;;0.80;;
50569;SDS011;36525;49.398;7.614;2023-08-08T00:11:42;2.47;;;0.80;;
50569;SDS011;36525;49.398;7.614;2023-08-08T00:14:10;2.08;;;0.82;;
50569;SDS011;36525;49.398;7.614;2023-08-08T00:16:37;4.50;;;1.13;;
50569;SDS011;36525;49.398;7.614;2023-08-08T00:19:04;2.20;;;0.98;;
50569;SDS011;36525;49.398;7.614;2023-08-08T00:21:32;1.40;;;0.68;;
50569;SDS011;36525;49.398;7.614;2023-08-08T00:23:59;2.55;;;0.90;;
50569;SDS011;36525;49.398;7.614;2023-08-08T00:26:26;2.75;;;0.90;;
50569;SDS011;36525;49.398;7.614;2023-08-08T00:28:54;2.35;;;0.90;;
50569;SDS011;36525;49.398;7.614;2023-08-08T00:31:21;4.38;;;1.05;;
50569;SDS011;36525;49.398;7.614;2023-08-08T00:33:48;8.60;;;1.00;;
50569;SDS011;36525;49.398;7.614;2023-08-08T00:36:16;3.60;;;0.90;;
50569;SDS011;36525;49.398;7.614;2023-08-08T00:38:43;1.98;;;0.80;;
50569;SDS011;36525;49.398;7.614;2023-08-08T00:41:10;3.45;;;0.80;;
50569;SDS011;36525;49.398;7.614;2023-08-08T00:43:37;2.50;;;0.77;;
50569;SDS011;36525;49.398;7.614;2023-08-08T00:46:04;3.78;;;0.82;;
50569;SDS011;36525;49.398;7.614;2023-08-08T00:48:31;2.65;;;1.02;;
50569;SDS011;36525;49.398;7.614;2023-08-08T00:50:59;3.10;;;0.90;;
50569;SDS011;36525;49.398;7.614;2023-08-08T00:53:29;1.65;;;0.80;;
50569;SDS011;36525;49.398;7.614;2023-08-08T00:55:59;2.65;;;0.70;;
50569;SDS011;36525;49.398;7.614;2023-08-08T00:58:27;2.17;;;0.70;;
50569;SDS011;36525;49.398;7.614;2023-08-08T01:00:55;3.92;;;1.02;;
50569;SDS011;36525;49.398;7.614;2023-08-08T01:03:26;2.47;;;0.70;;
50569;SDS011;36525;49.398;7.614;2023-08-08T01:05:57;4.95;;;1.00;;
50569;SDS011;36525;49.398;7.614;2023-08-08T01:08:37;3.38;;;1.02;;
50569;SDS011;36525;49.398;7.614;2023-08-08T01:11:10;6.38;;;1.02;;
50569;SDS011;36525;49.398;7.614;2023-08-08T01:13:40;1.63;;;0.80;;
50569;SDS011;36525;49.398;7.614;2023-08-08T01:16:10;3.05;;;0.75;;
50569;SDS011;36525;49.398;7.614;2023-08-08T01:18:38;3.13;;;0.80;;
50569;SDS011;36525;49.398;7.614;2023-08-08T01:21:07;3.88;;;0.93;;
50569;SDS011;36525;49.398;7.614;2023-08-08T01:23:41;1.25;;;0.60;;
50569;SDS011;36525;49.398;7.614;2023-08-08T01:26:13;1.77;;;0.73;;
50569;SDS011;36525;49.398;7.614;2023-08-08T01:28:41;3.10;;;0.98;;
50569;SDS011;36525;49.398;7.614;2023-08-08T01:31:09;1.95;;;0.77;;
50569;SDS011;36525;49.398;7.614;2023-08-08T01:33:37;5.93;;;1.10;;
50569;SDS011;36525;49.398;7.614;2023-08-08T01:36:07;1.80;;;0.70;;
50569;SDS011;36525;49.398;7.614;2023-08-08T01:38:41;3.83;;;1.15;;
50569;SDS011;36525;49.398;7.614;2023-08-08T01:41:12;4.35;;;1.00;;
50569;SDS011;36525;49.398;7.614;2023-08-08T01:43:40;1.65;;;0.90;;
50569;SDS011;36525;49.398;7.614;2023-08-08T01:46:09;4.90;;;1.27;;
50569;SDS011;36525;49.398;7.614;2023-08-08T01:48:37;2.25;;;1.15;;
50569;SDS011;36525;49.398;7.614;2023-08-08T01:51:04;3.05;;;1.00;;
50569;SDS011;36525;49.398;7.614;2023-08-08T01:53:32;3.03;;;1.02;;
50569;SDS011;36525;49.398;7.614;2023-08-08T01:55:59;2.28;;;1.10;;
50569;SDS011;36525;49.398;7.614;2023-08-08T01:58:26;2.70;;;0.90;;
50569;SDS011;36525;49.398;7.614;2023-08-08T02:00:53;3.22;;;1.10;;
50569;SDS011;36525;49.398;7.614;2023-08-08T02:03:21;2.75;;;0.90;;
50569;SDS011;36525;49.398;7.614;2023-08-08T02:05:48;2.38;;;0.95;;
50569;SDS011;36525;49.398;7.614;2023-08-08T02:08:16;3.97;;;1.00;;
50569;SDS011;36525;49.398;7.614;2023-08-08T02:10:44;4.70;;;0.80;;
50569;SDS011;36525;49.398;7.614;2023-08-08T02:13:11;2.35;;;0.90;;
50569;SDS011;36525;49.398;7.614;2023-08-08T02:15:38;1.65;;;1.00;;
50569;SDS011;36525;49.398;7.614;2023-08-08T02:18:05;2.45;;;0.90;;
50569;SDS011;36525;49.398;7.614;2023-08-08T02:20:35;1.75;;;0.90;;
50569;SDS011;36525;49.398;7.614;2023-08-08T02:23:03;5.03;;;1.13;;
50569;SDS011;36525;49.398;7.614;2023-08-08T02:25:31;2.55;;;1.10;;
50569;SDS011;36525;49.398;7.614;2023-08-08T02:27:59;2.63;;;1.10;;
50569;SDS011;36525;49.398;7.614;2023-08-08T02:30:26;3.55;;;1.00;;
50569;SDS011;36525;49.398;7.614;2023-08-08T02:32:53;5.65;;;1.30;;
50569;SDS011;36525;49.398;7.614;2023-08-08T02:35:21;4.45;;;1.20;;
50569;SDS011;36525;49.398;7.614;2023-08-08T02:37:48;2.65;;;0.90;;
50569;SDS011;36525;49.398;7.614;2023-08-08T02:40:15;3.30;;;1.10;;
50569;SDS011;36525;49.398;7.614;2023-08-08T02:42:42;5.38;;;0.98;;
50569;SDS011;36525;49.398;7.614;2023-08-08T02:45:09;4.63;;;1.13;;
50569;SDS011;36525;49.398;7.614;2023-08-08T02:47:36;2.88;;;1.13;;
50569;SDS011;36525;49.398;7.614;2023-08-08T02:50:04;7.55;;;1.55;;
50569;SDS011;36525;49.398;7.614;2023-08-08T02:52:31;3.78;;;1.23;;
50569;SDS011;36525;49.398;7.614;2023-08-08T02:54:58;2.63;;;1.05;;
50569;SDS011;36525;49.398;7.614;2023-08-08T02:57:25;2.58;;;0.95;;
50569;SDS011;36525;49.398;7.614;2023-08-08T02:59:53;4.35;;;1.08;;
50569;SDS011;36525;49.398;7.614;2023-08-08T03:02:20;4.75;;;1.40;;
50569;SDS011;36525;49.398;7.614;2023-08-08T03:04:48;3.90;;;1.33;;
50569;SDS011;36525;49.398;7.614;2023-08-08T03:07:33;3.45;;;1.10;;
50569;SDS011;36525;49.398;7.614;2023-08-08T03:10:01;2.75;;;1.20;;
50569;SDS011;36525;49.398;7.614;2023-08-08T03:12:29;6.05;;;1.30;;
50569;SDS011;36525;49.398;7.614;2023-08-08T03:14:57;2.97;;;1.23;;
50569;SDS011;36525;49.398;7.614;2023-08-08T03:17:24;3.03;;;1.30;;
50569;SDS011;36525;49.398;7.614;2023-08-08T03:19:51;4.32;;;1.33;;
50569;SDS011;36525;49.398;7.614;2023-08-08T03:22:18;4.78;;;1.45;;
50569;SDS011;36525;49.398;7.614;2023-08-08T03:24:46;5.05;;;1.25;;
50569;SDS011;36525;49.398;7.614;2023-08-08T03:27:13;4.45;;;1.33;;
50569;SDS011;36525;49.398;7.614;2023-08-08T03:29:40;4.18;;;1.38;;
50569;SDS011;36525;49.398;7.614;2023-08-08T03:32:07;3.83;;;1.48;;
50569;SDS011;36525;49.398;7.614;2023-08-08T03:34:35;3.30;;;1.48;;
50569;SDS011;36525;49.398;7.614;2023-08-08T03:37:02;2.78;;;1.23;;
50569;SDS011;36525;49.398;7.614;2023-08-08T03:39:29;3.40;;;1.23;;
50569;SDS011;36525;49.398;7.614;2023-08-08T03:41:57;1.88;;;1.00;;
50569;SDS011;36525;49.398;7.614;2023-08-08T03:44:24;4.78;;;1.27;;
50569;SDS011;36525;49.398;7.614;2023-08-08T03:46:54;5.00;;;1.13;;
50569;SDS011;36525;49.398;7.614;2023-08-08T03:49:39;5.55;;;1.20;;
50569;SDS011;36525;49.398;7.614;2023-08-08T03:52:06;5.43;;;1.23;;
50569;SDS011;36525;49.398;7.614;2023-08-08T03:54:33;3.08;;;1.67;;
50569;SDS011;36525;49.398;7.614;2023-08-08T03:57:00;4.07;;;1.20;;
50569;SDS011;36525;49.398;7.614;2023-08-08T03:59:28;2.45;;;1.17;;
50569;SDS011;36525;49.398;7.614;2023-08-08T04:01:54;5.95;;;1.30;;
50569;SDS011;36525;49.398;7.614;2023-08-08T04:04:22;4.78;;;1.33;;
50569;SDS011;36525;49.398;7.614;2023-08-08T04:06:49;6.72;;;1.42;;
50569;SDS011;36525;49.398;7.614;2023-08-08T04:09:16;3.20;;;1.63;;
50569;SDS011;36525;49.398;7.614;2023-08-08T04:11:43;6.20;;;1.35;;
50569;SDS011;36525;49.398;7.614;2023-08-08T04:14:11;5.32;;;1.50;;
50569;SDS011;36525;49.398;7.614;2023-08-08T04:16:38;8.80;;;1.75;;
50569;SDS011;36525;49.398;7.614;2023-08-08T04:19:06;6.10;;;1.60;;
50569;SDS011;36525;49.398;7.614;2023-08-08T04:21:33;4.43;;;1.67;;
50569;SDS011;36525;49.398;7.614;2023-08-08T04:24:00;4.10;;;1.73;;
50569;SDS011;36525;49.398;7.614;2023-08-08T04:26:28;4.60;;;1.85;;
50569;SDS011;36525;49.398;7.614;2023-08-08T04:28:56;3.45;;;1.65;;
50569;SDS011;36525;49.398;7.614;2023-08-08T04:31:23;5.13;;;1.55;;
50569;SDS011;36525;49.398;7.614;2023-08-08T04:33:52;4.85;;;1.48;;
50569;SDS011;36525;49.398;7.614;2023-08-08T04:36:27;5.65;;;1.60;;
50569;SDS011;36525;49.398;7.614;2023-08-08T04:38:55;5.15;;;1.58;;
50569;SDS011;36525;49.398;7.614;2023-08-08T04:41:22;4.97;;;1.33;;
50569;SDS011;36525;49.398;7.614;2023-08-08T04:43:49;4.57;;;1.83;;
50569;SDS011;36525;49.398;7.614;2023-08-08T04:46:17;4.90;;;1.80;;
50569;SDS011;36525;49.398;7.614;2023-08-08T04:48:45;7.85;;;2.22;;
50569;SDS011;36525;49.398;7.614;2023-08-08T04:51:11;5.35;;;1.58;;
50569;SDS011;36525;49.398;7.614;2023-08-08T04:53:39;3.38;;;1.42;;
50569;SDS011;36525;49.398;7.614;2023-08-08T04:56:06;9.63;;;2.13;;
50569;SDS011;36525;49.398;7.614;2023-08-08T04:58:34;4.85;;;1.58;;
50569;SDS011;36525;49.398;7.614;2023-08-08T05:01:01;5.35;;;2.10;;
50569;SDS011;36525;49.398;7.614;2023-08-08T05:03:28;4.75;;;1.88;;
50569;SDS011;36525;49.398;7.614;2023-08-08T05:05:55;4.18;;;1.67;;
50569;SDS011;36525;49.398;7.614;2023-08-08T05:08:23;6.78;;;1.95;;
50569;SDS011;36525;49.398;7.614;2023-08-08T05:10:50;8.65;;;2.08;;
50569;SDS011;36525;49.398;7.614;2023-08-08T05:13:17;6.72;;;2.03;;
50569;SDS011;36525;49.398;7.614;2023-08-08T05:15:44;7.25;;;2.10;;
50569;SDS011;36525;49.398;7.614;2023-08-08T05:18:11;4.93;;;1.88;;
50569;SDS011;36525;49.398;7.614;2023-08-08T05:20:39;6.25;;;2.35;;
50569;SDS011;36525;49.398;7.614;2023-08-08T05:23:06;6.75;;;1.90;;
50569;SDS011;36525;49.398;7.614;2023-08-08T05:25:33;3.78;;;1.85;;
50569;SDS011;36525;49.398;7.614;2023-08-08T05:28:00;4.32;;;2.10;;
50569;SDS011;36525;49.398;7.614;2023-08-08T05:30:28;5.43;;;1.63;;
50569;SDS011;36525;49.398;7.614;2023-08-08T05:32:55;4.78;;;1.88;;
50569;SDS011;36525;49.398;7.614;2023-08-08T05:35:22;4.20;;;1.52;;
50569;SDS011;36525;49.398;7.614;2023-08-08T05:37:49;7.40;;;1.90;;
50569;SDS011;36525;49.398;7.614;2023-08-08T05:40:16;6.57;;;1.95;;
50569;SDS011;36525;49.398;7.614;2023-08-08T05:42:43;4.03;;;1.58;;
50569;SDS011;36525;49.398;7.614;2023-08-08T05:45:10;6.93;;;1.95;;
50569;SDS011;36525;49.398;7.614;2023-08-08T05:47:37;4.40;;;1.58;;
50569;SDS011;36525;49.398;7.614;2023-08-08T05:50:05;3.88;;;1.58;;
50569;SDS011;36525;49.398;7.614;2023-08-08T05:52:33;4.43;;;1.60;;
50569;SDS011;36525;49.398;7.614;2023-08-08T05:55:00;4.97;;;1.90;;
50569;SDS011;36525;49.398;7.614;2023-08-08T05:57:28;5.53;;;1.63;;
50569;SDS011;36525;49.398;7.614;2023-08-08T05:59:55;5.18;;;1.73;;
50569;SDS011;36525;49.398;7.614;2023-08-08T06:02:22;5.80;;;1.65;;
50569;SDS011;36525;49.398;7.614;2023-08-08T06:04:49;5.45;;;1.98;;
50569;SDS011;36525;49.398;7.614;2023-08-08T06:07:17;4.90;;;1.50;;
50569;SDS011;36525;49.398;7.614;2023-08-08T06:09:44;6.97;;;1.70;;
50569;SDS011;36525;49.398;7.614;2023-08-08T06:12:11;6.47;;;1.42;;
50569;SDS011;36525;49.398;7.614;2023-08-08T06:14:38;5.13;;;1.42;;
50569;SDS011;36525;49.398;7.614;2023-08-08T06:17:05;14.63;;;1.95;;
50569;SDS011;36525;49.398;7.614;2023-08-08T06:19:33;5.32;;;1.33;;
50569;SDS011;36525;49.398;7.614;2023-08-08T06:22:01;4.18;;;1.25;;
50569;SDS011;36525;49.398;7.614;2023-08-08T06:24:30;3.45;;;1.10;;
50569;SDS011;36525;49.398;7.614;2023-08-08T06:26:58;5.38;;;1.45;;
50569;SDS011;36525;49.398;7.614;2023-08-08T06:29:25;5.15;;;1.48;;
50569;SDS011;36525;49.398;7.614;2023-08-08T06:31:54;3.65;;;1.35;;
50569;SDS011;36525;49.398;7.614;2023-08-08T06:34:21;3.38;;;1.45;;
50569;SDS011;36525;49.398;7.614;2023-08-08T06:36:48;2.70;;;1.20;;
50569;SDS011;36525;49.398;7.614;2023-08-08T06:39:16;4.95;;;1.33;;
50569;SDS011;36525;49.398;7.614;2023-08-08T06:41:45;5.55;;;1.67;;
50569;SDS011;36525;49.398;7.614;2023-08-08T06:44:15;4.55;;;1.20;;
50569;SDS011;36525;49.398;7.614;2023-08-08T06:46:42;7.82;;;1.63;;
50569;SDS011;36525;49.398;7.614;2023-08-08T06:49:09;2.75;;;1.00;;
50569;SDS011;36525;49.398;7.614;2023-08-08T06:51:37;5.55;;;1.42;;
50569;SDS011;36525;49.398;7.614;2023-08-08T06:54:04;3.10;;;1.02;;
50569;SDS011;36525;49.398;7.614;2023-08-08T06:56:32;5.10;;;1.10;;
50569;SDS011;36525;49.398;7.614;2023-08-08T06:58:59;4.28;;;1.05;;
50569;SDS011;36525;49.398;7.614;2023-08-08T07:01:26;5.32;;;1.00;;
50569;SDS011;36525;49.398;7.614;2023-08-08T07:03:53;4.22;;;1.13;;
50569;SDS011;36525;49.398;7.614;2023-08-08T07:06:20;3.97;;;1.27;;
50569;SDS011;36525;49.398;7.614;2023-08-08T07:08:48;3.80;;;1.30;;
50569;SDS011;36525;49.398;7.614;2023-08-08T07:11:15;5.18;;;0.98;;
50569;SDS011;36525;49.398;7.614;2023-08-08T07:13:42;3.97;;;1.10;;
50569;SDS011;36525;49.398;7.614;2023-08-08T07:16:09;4.80;;;1.35;;
50569;SDS011;36525;49.398;7.614;2023-08-08T07:18:36;4.68;;;1.05;;
50569;SDS011;36525;49.398;7.614;2023-08-08T07:21:04;4.95;;;1.08;;
50569;SDS011;36525;49.398;7.614;2023-08-08T07:23:35;6.35;;;1.20;;
50569;SDS011;36525;49.398;7.614;2023-08-08T07:26:02;8.40;;;1.50;;
50569;SDS011;36525;49.398;7.614;2023-08-08T07:28:29;3.90;;;1.20;;
50569;SDS011;36525;49.398;7.614;2023-08-08T07:30:56;3.08;;;0.80;;
50569;SDS011;36525;49.398;7.614;2023-08-08T07:33:23;3.75;;;1.10;;
50569;SDS011;36525;49.398;7.614;2023-08-08T07:35:51;4.88;;;1.38;;
50569;SDS011;36525;49.398;7.614;2023-08-08T07:38:18;5.68;;;1.60;;
50569;SDS011;36525;49.398;7.614;2023-08-08T07:40:45;6.15;;;1.10;;
50569;SDS011;36525;49.398;7.614;2023-08-08T07:43:14;3.83;;;0.95;;
50569;SDS011;36525;49.398;7.614;2023-08-08T07:45:41;5.47;;;0.93;;
50569;SDS011;36525;49.398;7.614;2023-08-08T07:48:09;6.97;;;1.08;;
50569;SDS011;36525;49.398;7.614;2023-08-08T07:50:38;6.43;;;1.00;;
50569;SDS011;36525;49.398;7.614;2023-08-08T07:53:06;4.80;;;1.10;;
50569;SDS011;36525;49.398;7.614;2023-08-08T07:55:33;3.17;;;1.00;;
50569;SDS011;36525;49.398;7.614;2023-08-08T07:58:00;5.40;;;0.98;;
50569;SDS011;36525;49.398;7.614;2023-08-08T08:00:27;3.15;;;0.90;;
50569;SDS011;36525;49.398;7.614;2023-08-08T08:02:55;4.90;;;1.20;;
50569;SDS011;36525;49.398;7.614;2023-08-08T08:05:22;10.90;;;1.42;;
50569;SDS011;36525;49.398;7.614;2023-08-08T08:07:50;5.80;;;1.10;;
50569;SDS011;36525;49.398;7.614;2023-08-08T08:10:17;4.80;;;1.00;;
50569;SDS011;36525;49.398;7.614;2023-08-08T08:12:44;6.68;;;1.42;;
50569;SDS011;36525;49.398;7.614;2023-08-08T08:15:11;6.95;;;1.42;;
50569;SDS011;36525;49.398;7.614;2023-08-08T08:17:40;6.55;;;1.20;;
50569;SDS011;36525;49.398;7.614;2023-08-08T08:20:08;4.35;;;0.90;;
50569;SDS011;36525;49.398;7.614;2023-08-08T08:22:38;4.38;;;1.20;;
50569;SDS011;36525;49.398;7.614;2023-08-08T08:25:05;4.70;;;1.25;;
50569;SDS011;36525;49.398;7.614;2023-08-08T08:27:36;4.30;;;1.13;;
50569;SDS011;36525;49.398;7.614;2023-08-08T08:30:04;3.63;;;1.27;;
50569;SDS011;36525;49.398;7.614;2023-08-08T08:32:36;5.60;;;1.10;;
50569;SDS011;36525;49.398;7.614;2023-08-08T08:35:05;2.35;;;0.95;;
50569;SDS011;36525;49.398;7.614;2023-08-08T08:37:34;5.45;;;1.23;;
50569;SDS011;36525;49.398;7.614;2023-08-08T08:40:02;2.60;;;0.93;;
50569;SDS011;36525;49.398;7.614;2023-08-08T08:42:32;3.83;;;1.20;;
50569;SDS011;36525;49.398;7.614;2023-08-08T08:45:02;4.07;;;1.00;;
50569;SDS011;36525;49.398;7.614;2023-08-08T08:47:31;3.25;;;0.70;;
50569;SDS011;36525;49.398;7.614;2023-08-08T08:50:02;3.47;;;1.05;;
50569;SDS011;36525;49.398;7.614;2023-08-08T08:52:30;3.13;;;0.70;;
50569;SDS011;36525;49.398;7.614;2023-08-08T08:54:58;2.72;;;0.80;;
50569;SDS011;36525;49.398;7.614;2023-08-08T08:57:31;6.22;;;0.98;;
50569;SDS011;36525;49.398;7.614;2023-08-08T08:59:59;3.15;;;0.80;;
50569;SDS011;36525;49.398;7.614;2023-08-08T09:02:26;3.55;;;0.80;;
50569;SDS011;36525;49.398;7.614;2023-08-08T09:04:53;2.90;;;0.80;;
50569;SDS011;36525;49.398;7.614;2023-08-08T09:07:22;3.63;;;0.80;;
50569;SDS011;36525;49.398;7.614;2023-08-08T09:09:52;4.50;;;1.05;;
50569;SDS011;36525;49.398;7.614;2023-08-08T09:12:20;5.28;;;0.85;;
50569;SDS011;36525;49.398;7.614;2023-08-08T09:14:47;3.95;;;0.90;;
50569;SDS011;36525;49.398;7.614;2023-08-08T09:17:26;3.83;;;0.80;;
50569;SDS011;36525;49.398;7.614;2023-08-08T09:20:13;2.67;;;0.90;;
50569;SDS011;36525;49.398;7.614;2023-08-08T09:22:40;3.47;;;0.77;;
50569;SDS011;36525;49.398;7.614;2023-08-08T09:25:07;3.55;;;1.10;;
50569;SDS011;36525;49.398;7.614;2023-08-08T09:27:35;2.65;;;0.80;;
50569;SDS011;36525;49.398;7.614;2023-08-08T09:30:02;2.83;;;0.75;;
50569;SDS011;36525;49.398;7.614;2023-08-08T09:32:31;2.92;;;0.80;;
50569;SDS011;36525;49.398;7.614;2023-08-08T09:35:01;3.50;;;0.85;;
50569;SDS011;36525;49.398;7.614;2023-08-08T09:37:29;4.38;;;1.35;;
50569;SDS011;36525;49.398;7.614;2023-08-08T09:39:57;3.97;;;0.70;;
50569;SDS011;36525;49.398;7.614;2023-08-08T09:42:28;4.45;;;0.93;;
50569;SDS011;36525;49.398;7.614;2023-08-08T09:44:56;3.95;;;0.80;;
50569;SDS011;36525;49.398;7.614;2023-08-08T09:47:24;4.10;;;1.00;;
50569;SDS011;36525;49.398;7.614;2023-08-08T09:50:01;2.60;;;0.98;;
50569;SDS011;36525;49.398;7.614;2023-08-08T09:52:33;3.72;;;0.98;;
50569;SDS011;36525;49.398;7.614;2023-08-08T09:55:01;3.00;;;1.05;;
50569;SDS011;36525;49.398;7.614;2023-08-08T09:57:30;3.80;;;0.98;;
50569;SDS011;36525;49.398;7.614;2023-08-08T09:59:58;3.75;;;0.80;;
50569;SDS011;36525;49.398;7.614;2023-08-08T10:02:27;4.35;;;0.90;;
50569;SDS011;36525;49.398;7.614;2023-08-08T10:04:56;3.05;;;1.23;;
50569;SDS011;36525;49.398;7.614;2023-08-08T10:07:25;5.47;;;1.15;;
50569;SDS011;36525;49.398;7.614;2023-08-08T10:09:52;2.65;;;0.90;;
50569;SDS011;36525;49.398;7.614;2023-08-08T10:12:19;2.90;;;0.73;;
50569;SDS011;36525;49.398;7.614;2023-08-08T10:14:47;1.95;;;0.80;;
50569;SDS011;36525;49.398;7.614;2023-08-08T10:17:15;5.30;;;0.95;;
50569;SDS011;36525;49.398;7.614;2023-08-08T10:19:53;6.05;;;0.80;;
50569;SDS011;36525;49.398;7.614;2023-08-08T10:22:22;3.35;;;0.85;;
50569;SDS011;36525;49.398;7.614;2023-08-08T10:24:52;2.65;;;0.80;;
50569;SDS011;36525;49.398;7.614;2023-08-08T10:27:33;4.40;;;0.80;;
50569;SDS011;36525;49.398;7.614;2023-08-08T10:30:03;3.47;;;0.80;;
50569;SDS011;36525;49.398;7.614;2023-08-08T10:32:43;2.72;;;0.80;;
50569;SDS011;36525;49.398;7.614;2023-08-08T10:35:15;3.38;;;0.80;;
50569;SDS011;36525;49.398;7.614;2023-08-08T10:37:51;3.03;;;0.73;;
50569;SDS011;36525;49.398;7.614;2023-08-08T10:40:22;2.72;;;0.77;;
50569;SDS011;36525;49.398;7.614;2023-08-08T10:42:51;2.03;;;0.70;;
50569;SDS011;36525;49.398;7.614;2023-08-08T10:45:18;2.78;;;0.70;;
50569;SDS011;36525;49.398;7.614;2023-08-08T10:47:46;4.10;;;0.90;;
50569;SDS011;36525;49.398;7.614;2023-08-08T10:50:14;2.05;;;0.60;;
50569;SDS011;36525;49.398;7.614;2023-08-08T10:55:19;2.67;;;0.88;;
50569;SDS011;36525;49.398;7.614;2023-08-08T11:00:35;2.03;;;0.65;;
50569;SDS011;36525;49.398;7.614;2023-08-08T11:03:07;2.83;;;0.80;;
50569;SDS011;36525;49.398;7.614;2023-08-08T11:05:36;2.47;;;1.00;;
50569;SDS011;36525;49.398;7.614;2023-08-08T11:08:05;1.95;;;0.60;;
50569;SDS011;36525;49.398;7.614;2023-08-08T11:10:37;2.63;;;0.70;;
50569;SDS011;36525;49.398;7.614;2023-08-08T11:13:06;2.72;;;0.88;;
50569;SDS011;36525;49.398;7.614;2023-08-08T11:15:36;2.03;;;0.90;;
50569;SDS011;36525;49.398;7.614;2023-08-08T11:18:05;1.75;;;0.70;;
50569;SDS011;36525;49.398;7.614;2023-08-08T11:20:35;2.53;;;0.70;;
50569;SDS011;36525;49.398;7.614;2023-08-08T11:23:03;2.50;;;0.80;;
50569;SDS011;36525;49.398;7.614;2023-08-08T11:25:32;2.03;;;0.60;;
50569;SDS011;36525;49.398;7.614;2023-08-08T11:27:59;3.88;;;0.90;;
50569;SDS011;36525;49.398;7.614;2023-08-08T11:30:28;3.10;;;0.68;;
50569;SDS011;36525;49.398;7.614;2023-08-08T11:32:57;2.03;;;0.70;;
50569;SDS011;36525;49.398;7.614;2023-08-08T11:35:28;4.35;;;0.85;;
50569;SDS011;36525;49.398;7.614;2023-08-08T11:37:56;1.30;;;0.60;;
50569;SDS011;36525;49.398;7.614;2023-08-08T11:40:25;3.78;;;0.70;;
50569;SDS011;36525;49.398;7.614;2023-08-08T11:42:55;1.92;;;0.70;;
50569;SDS011;36525;49.398;7.614;2023-08-08T11:45:23;3.58;;;0.90;;
50569;SDS011;36525;49.398;7.614;2023-08-08T11:47:52;2.97;;;0.80;;
50569;SDS011;36525;49.398;7.614;2023-08-08T11:50:21;1.35;;;0.60;;
50569;SDS011;36525;49.398;7.614;2023-08-08T11:52:51;2.75;;;0.50;;
50569;SDS011;36525;49.398;7.614;2023-08-08T11:55:27;3.15;;;1.08;;
50569;SDS011;36525;49.398;7.614;2023-08-08T11:57:56;5.25;;;0.90;;
50569;SDS011;36525;49.398;7.614;2023-08-08T12:00:29;4.60;;;0.70;;
50569;SDS011;36525;49.398;7.614;2023-08-08T12:02:58;3.63;;;0.80;;
50569;SDS011;36525;49.398;7.614;2023-08-08T12:05:31;3.13;;;0.75;;
50569;SDS011;36525;49.398;7.614;2023-08-08T12:08:05;2.92;;;0.60;;
50569;SDS011;36525;49.398;7.614;2023-08-08T12:10:33;1.30;;;0.60;;
50569;SDS011;36525;49.398;7.614;2023-08-08T12:12:59;2.45;;;0.60;;
50569;SDS011;36525;49.398;7.614;2023-08-08T12:15:31;3.05;;;0.70;;
50569;SDS011;36525;49.398;7.614;2023-08-08T12:18:01;3.30;;;0.60;;
50569;SDS011;36525;49.398;7.614;2023-08-08T12:20:30;2.72;;;0.60;;
50569;SDS011;36525;49.398;7.614;2023-08-08T12:22:59;4.20;;;0.80;;
50569;SDS011;36525;49.398;7.614;2023-08-08T12:25:26;4.20;;;0.82;;
50569;SDS011;36525;49.398;7.614;2023-08-08T12:27:54;2.20;;;0.60;;
50569;SDS011;36525;49.398;7.614;2023-08-08T12:30:24;2.42;;;0.73;;
50569;SDS011;36525;49.398;7.614;2023-08-08T12:32:51;1.95;;;0.60;;
50569;SDS011;36525;49.398;7.614;2023-08-08T12:35:20;2.97;;;0.68;;
50569;SDS011;36525;49.398;7.614;2023-08-08T12:37:47;2.45;;;0.68;;
50569;SDS011;36525;49.398;7.614;2023-08-08T12:40:14;2.65;;;0.60;;
50569;SDS011;36525;49.398;7.614;2023-08-08T12:42:41;3.65;;;0.80;;
50569;SDS011;36525;49.398;7.614;2023-08-08T12:45:10;4.72;;;0.90;;
50569;SDS011;36525;49.398;7.614;2023-08-08T12:47:37;5.72;;;0.85;;
50569;SDS011;36525;49.398;7.614;2023-08-08T12:50:05;3.15;;;1.00;;
50569;SDS011;36525;49.398;7.614;2023-08-08T12:52:33;2.08;;;0.80;;
50569;SDS011;36525;49.398;7.614;2023-08-08T12:55:00;2.10;;;0.60;;
50569;SDS011;36525;49.398;7.614;2023-08-08T12:57:29;4.53;;;1.00;;
50569;SDS011;36525;49.398;7.614;2023-08-08T12:59:56;2.83;;;0.63;;
50569;SDS011;36525;49.398;7.614;2023-08-08T13:02:23;2.72;;;0.65;;
50569;SDS011;36525;49.398;7.614;2023-08-08T13:04:51;2.40;;;0.65;;
50569;SDS011;36525;49.398;7.614;2023-08-08T13:07:18;2.45;;;0.70;;
50569;SDS011;36525;49.398;7.614;2023-08-08T13:09:45;1.58;;;0.60;;
50569;SDS011;36525;49.398;7.614;2023-08-08T13:12:12;2.13;;;0.70;;
50569;SDS011;36525;49.398;7.614;2023-08-08T13:14:39;3.33;;;0.80;;
50569;SDS011;36525;49.398;7.614;2023-08-08T13:17:06;5.15;;;0.80;;
50569;SDS011;36525;49.398;7.614;2023-08-08T13:19:33;4.72;;;0.77;;
50569;SDS011;36525;49.398;7.614;2023-08-08T13:22:00;8.75;;;1.13;;
50569;SDS011;36525;49.398;7.614;2023-08-08T13:24:29;2.03;;;0.80;;
50569;SDS011;36525;49.398;7.614;2023-08-08T13:26:57;2.40;;;0.73;;
50569;SDS011;36525;49.398;7.614;2023-08-08T13:29:24;7.47;;;0.95;;
50569;SDS011;36525;49.398;7.614;2023-08-08T13:31:51;1.88;;;0.75;;
50569;SDS011;36525;49.398;7.614;2023-08-08T13:34:18;3.25;;;0.70;;
50569;SDS011;36525;49.398;7.614;2023-08-08T13:36:45;2.88;;;0.70;;
50569;SDS011;36525;49.398;7.614;2023-08-08T13:39:12;3.88;;;0.70;;
50569;SDS011;36525;49.398;7.614;2023-08-08T13:41:40;2.38;;;0.60;;
50569;SDS011;36525;49.398;7.614;2023-08-08T13:44:07;2.35;;;0.70;;
50569;SDS011;36525;49.398;7.614;2023-08-08T13:46:34;3.38;;;0.90;;
50569;SDS011;36525;49.398;7.614;2023-08-08T13:49:01;4.28;;;0.70;;
50569;SDS011;36525;49.398;7.614;2023-08-08T13:51:29;4.97;;;0.98;;
50569;SDS011;36525;49.398;7.614;2023-08-08T13:53:56;2.33;;;0.65;;
50569;SDS011;36525;49.398;7.614;2023-08-08T13:56:23;3.00;;;0.80;;
50569;SDS011;36525;49.398;7.614;2023-08-08T13:58:51;4.00;;;0.80;;
50569;SDS011;36525;49.398;7.614;2023-08-08T14:01:18;3.10;;;0.80;;
50569;SDS011;36525;49.398;7.614;2023-08-08T14:03:45;3.13;;;0.68;;
50569;SDS011;36525;49.398;7.614;2023-08-08T14:06:15;3.10;;;0.70;;
50569;SDS011;36525;49.398;7.614;2023-08-08T14:08:43;4.88;;;0.70;;
50569;SDS011;36525;49.398;7.614;2023-08-08T14:11:12;2.20;;;0.82;;
50569;SDS011;36525;49.398;7.614;2023-08-08T14:13:40;4.15;;;0.93;;
50569;SDS011;36525;49.398;7.614;2023-08-08T14:16:08;3.75;;;0.70;;
50569;SDS011;36525;49.398;7.614;2023-08-08T14:18:35;2.65;;;0.70;;
50569;SDS011;36525;49.398;7.614;2023-08-08T14:21:02;5.47;;;0.80;;
50569;SDS011;36525;49.398;7.614;2023-08-08T14:23:31;2.80;;;0.80;;
50569;SDS011;36525;49.398;7.614;2023-08-08T14:25:58;3.10;;;0.82;;
50569;SDS011;36525;49.398;7.614;2023-08-08T14:28:25;4.95;;;1.00;;
50569;SDS011;36525;49.398;7.614;2023-08-08T14:30:54;3.42;;;1.27;;
50569;SDS011;36525;49.398;7.614;2023-08-08T14:33:21;3.25;;;1.00;;
50569;SDS011;36525;49.398;7.614;2023-08-08T14:35:50;2.47;;;0.93;;
50569;SDS011;36525;49.398;7.614;2023-08-08T14:38:17;3.03;;;0.70;;
50569;SDS011;36525;49.398;7.614;2023-08-08T14:40:44;2.20;;;0.73;;
50569;SDS011;36525;49.398;7.614;2023-08-08T14:43:11;5.13;;;0.90;;
50569;SDS011;36525;49.398;7.614;2023-08-08T14:45:39;4.95;;;1.42;;
50569;SDS011;36525;49.398;7.614;2023-08-08T14:48:06;2.13;;;0.75;;
50569;SDS011;36525;49.398;7.614;2023-08-08T14:50:33;3.42;;;0.88;;
50569;SDS011;36525;49.398;7.614;2023-08-08T14:53:01;4.28;;;0.88;;
50569;SDS011;36525;49.398;7.614;2023-08-08T14:55:28;5.22;;;1.00;;
50569;SDS011;36525;49.398;7.614;2023-08-08T14:57:56;4.00;;;0.90;;
50569;SDS011;36525;49.398;7.614;2023-08-08T15:00:23;2.83;;;0.80;;